AYMH/HGU METAR and TAF weather

Enter ICAO airport designator
Station Type Date Time Source
AYMH METAR 2020/04/06 05:00 UTC NOAA

AYMH 060500Z 16010KT 9999 -SHRA BKN100 19/16 Q1016=


Station Type Date Time Source
AYMH Decoded METAR 2020/04/06 05:00 UTC NOAA

Station name not available
Apr 06, 2020 - 01:00 AM EDT / 2020.04.06 0500 UTC
Wind: from the SSE (160 degrees) at 12 MPH (10 KT):0
Visibility: greater than 7 mile(s):0
Sky conditions: mostly cloudy
Weather: light rain showers
Temperature: 66 F (19 C)
Dew Point: 60 F (16 C)
Relative Humidity: 82%
Pressure (altimeter): 30.00 in. Hg (1016 hPa)
ob: AYMH 060500Z 16010KT 9999 -SHRA BKN100 19/16 Q1016=
cycle: 5

Station Type Date Time Source
AYMH TAF UTC NOAA

Error!

Example: see airport list